Time;durP1;ratioP1;P1;durP2;ratioP2;P2;SDS_P1;SDS_P2;PMS_P1;PMS_P2;Temp;Humidity;BMP_temperature;BMP_pressure;BME280_temperature;BME280_humidity;BME280_pressure;Samples;Min_cycle;Max_cycle;Signal;HPM_P1;HPM_P2
2023/04/21 00:02:26;;;;;;;29.08;17.13;;;8.50;99.90;;;;;;5079990;28;20127;-64
2023/04/21 00:04:52;;;;;;;30.05;17.70;;;8.50;99.90;;;;;;5064013;28;20040;-64
2023/04/21 00:07:19;;;;;;;27.83;17.52;;;8.50;99.90;;;;;;5079631;28;20036;-64
2023/04/21 00:09:45;;;;;;;28.23;17.25;;;8.50;99.90;;;;;;5063526;28;20043;-64
2023/04/21 00:12:11;;;;;;;28.00;15.50;;;8.50;99.90;;;;;;5080589;28;20040;-64
2023/04/21 00:14:38;;;;;;;26.77;16.38;;;8.50;99.90;;;;;;5080231;28;20172;-64
2023/04/21 00:17:04;;;;;;;35.22;16.85;;;8.50;99.90;;;;;;5079177;28;20084;-64
2023/04/21 00:19:30;;;;;;;25.13;15.40;;;8.50;99.90;;;;;;5084475;28;20115;-64
2023/04/21 00:22:00;;;;;;;29.25;16.77;;;8.40;99.90;;;;;;5065753;28;20130;-64
2023/04/21 00:24:26;;;;;;;25.77;15.93;;;8.40;99.90;;;;;;5081267;28;20047;-64
2023/04/21 00:26:51;;;;;;;27.40;15.30;;;8.30;99.90;;;;;;5082973;28;20075;-64
2023/04/21 00:29:17;;;;;;;22.75;14.48;;;8.30;99.90;;;;;;5083516;28;20456;-63
2023/04/21 00:31:43;;;;;;;29.50;15.80;;;8.20;99.90;;;;;;5079732;28;20032;-64
2023/04/21 00:34:09;;;;;;;27.42;15.70;;;8.20;99.90;;;;;;5082577;28;20119;-64
2023/04/21 00:36:35;;;;;;;23.55;14.98;;;8.10;99.90;;;;;;5084870;28;20582;-64
2023/04/21 00:39:00;;;;;;;26.02;16.00;;;8.00;99.90;;;;;;5080915;28;20040;-64
2023/04/21 00:41:27;;;;;;;23.80;15.10;;;8.00;99.90;;;;;;5083298;28;20036;-64
2023/04/21 00:44:03;;;;;;;27.17;15.85;;;8.00;99.90;;;;;;5064011;28;20396;-65
2023/04/21 00:46:29;;;;;;;23.92;14.02;;;7.90;99.90;;;;;;5082735;28;20031;-64
2023/04/21 00:48:56;;;;;;;22.05;13.98;;;7.90;99.90;;;;;;5081453;28;20180;-64
2023/04/21 00:51:21;;;;;;;25.52;15.23;;;7.90;99.90;;;;;;5082596;28;20096;-64
2023/04/21 00:53:48;;;;;;;23.67;14.75;;;7.90;99.90;;;;;;5081210;28;20044;-64
2023/04/21 00:56:14;;;;;;;23.88;15.07;;;7.80;99.90;;;;;;5043390;28;20110;-64
2023/04/21 00:58:41;;;;;;;29.05;14.65;;;7.80;99.90;;;;;;5062325;28;20039;-64
2023/04/21 01:01:07;;;;;;;26.58;15.40;;;7.80;99.90;;;;;;5083695;28;20028;-64
2023/04/21 01:03:33;;;;;;;20.58;14.55;;;7.80;99.90;;;;;;5080985;28;20040;-64
2023/04/21 01:05:59;;;;;;;26.05;15.68;;;7.80;99.90;;;;;;5085613;28;20032;-64
2023/04/21 01:08:26;;;;;;;24.10;14.63;;;7.80;99.90;;;;;;5045218;28;20401;-64
2023/04/21 01:10:51;;;;;;;24.98;14.30;;;7.80;99.90;;;;;;5081615;28;20120;-64
2023/04/21 01:13:23;;;;;;;22.90;14.35;;;7.80;99.90;;;;;;5078956;28;20119;-64
2023/04/21 01:15:48;;;;;;;20.05;13.85;;;7.80;99.90;;;;;;5064778;28;20048;-64
2023/04/21 01:18:15;;;;;;;22.83;13.45;;;7.70;99.90;;;;;;5043188;28;20396;-64
2023/04/21 01:20:43;;;;;;;20.88;13.57;;;7.70;99.90;;;;;;5080194;28;20071;-64
2023/04/21 01:23:09;;;;;;;24.40;14.25;;;7.70;99.90;;;;;;5065465;28;20036;-64
2023/04/21 01:25:35;;;;;;;20.98;14.07;;;7.70;99.90;;;;;;5083542;28;20046;-64
2023/04/21 01:28:02;;;;;;;24.95;13.88;;;7.70;99.90;;;;;;5081474;28;20040;-64
2023/04/21 01:30:28;;;;;;;20.08;14.02;;;7.70;99.90;;;;;;5078635;28;20036;-64
2023/04/21 01:32:54;;;;;;;23.38;13.13;;;7.70;99.90;;;;;;5080390;28;20497;-64
2023/04/21 01:35:19;;;;;;;23.88;14.55;;;7.70;99.90;;;;;;5080749;28;20449;-64
2023/04/21 01:37:45;;;;;;;21.55;13.90;;;7.70;99.90;;;;;;5061949;28;20044;-64
2023/04/21 01:40:11;;;;;;;21.17;15.10;;;7.60;99.90;;;;;;5082987;28;20477;-64
2023/04/21 01:42:42;;;;;;;22.30;13.90;;;7.60;99.90;;;;;;5082115;28;20041;-64
2023/04/21 01:45:09;;;;;;;19.10;13.43;;;7.60;99.90;;;;;;5078919;28;20028;-64
2023/04/21 01:47:34;;;;;;;23.60;14.23;;;7.50;99.90;;;;;;5080778;28;20389;-64
2023/04/21 01:50:00;;;;;;;23.20;13.85;;;7.50;99.90;;;;;;5065518;28;20036;-64
2023/04/21 01:52:26;;;;;;;22.48;12.73;;;7.40;99.90;;;;;;5079967;28;20033;-64
2023/04/21 01:54:52;;;;;;;20.33;13.18;;;7.40;99.90;;;;;;5067217;28;20122;-64
2023/04/21 01:57:17;;;;;;;21.50;13.63;;;7.40;99.90;;;;;;5079535;28;20031;-64
2023/04/21 01:59:43;;;;;;;20.45;13.15;;;7.40;99.90;;;;;;5081067;28;20075;-64
2023/04/21 02:02:09;;;;;;;21.15;13.60;;;7.40;99.90;;;;;;5078844;28;20044;-64
2023/04/21 02:04:35;;;;;;;20.83;13.27;;;7.40;99.90;;;;;;5098017;28;20040;-64
2023/04/21 02:07:01;;;;;;;18.40;13.27;;;7.40;99.90;;;;;;5085175;28;20122;-64
2023/04/21 02:09:27;;;;;;;22.52;12.95;;;7.40;99.90;;;;;;5098177;28;20035;-63
2023/04/21 02:11:54;;;;;;;22.30;13.07;;;7.40;99.90;;;;;;5050657;28;20031;-64
2023/04/21 02:14:20;;;;;;;21.77;13.05;;;7.60;99.90;;;;;;5044749;28;20054;-64
2023/04/21 02:16:45;;;;;;;21.13;12.43;;;7.60;99.90;;;;;;5078742;28;20036;-64
2023/04/21 02:19:11;;;;;;;21.05;12.77;;;7.60;99.90;;;;;;5080517;28;20036;-64
2023/04/21 02:21:37;;;;;;;19.15;12.20;;;7.70;99.90;;;;;;5079194;28;20032;-65
2023/04/21 02:24:03;;;;;;;16.45;11.25;;;7.70;99.90;;;;;;5082644;28;20377;-64
2023/04/21 02:26:29;;;;;;;21.38;12.77;;;7.70;99.90;;;;;;5078298;28;20044;-64
2023/04/21 02:28:55;;;;;;;19.63;12.07;;;7.70;99.90;;;;;;5062787;28;20125;-64
2023/04/21 02:31:21;;;;;;;19.02;12.13;;;7.70;99.90;;;;;;5061491;28;20515;-64
2023/04/21 02:33:46;;;;;;;21.25;12.40;;;7.80;99.90;;;;;;5061690;28;20048;-64
2023/04/21 02:36:12;;;;;;;21.40;12.10;;;7.80;99.90;;;;;;5078189;28;20042;-64
2023/04/21 02:38:38;;;;;;;17.38;11.50;;;7.80;99.90;;;;;;5079746;28;20067;-64
2023/04/21 02:41:04;;;;;;;21.23;11.65;;;7.80;99.90;;;;;;5079426;28;20118;-64
2023/04/21 02:43:30;;;;;;;19.58;11.63;;;7.80;99.90;;;;;;5079047;28;20048;-64
2023/04/21 02:45:55;;;;;;;20.50;12.02;;;7.80;99.90;;;;;;5044746;28;20508;-64
2023/04/21 02:48:24;;;;;;;16.70;12.00;;;7.80;99.90;;;;;;5060689;28;20078;-63
2023/04/21 02:50:52;;;;;;;19.67;11.75;;;7.80;99.90;;;;;;5075727;28;20047;-64
2023/04/21 02:53:21;;;;;;;25.05;12.48;;;7.80;99.90;;;;;;5082660;28;20114;-65
2023/04/21 02:55:47;;;;;;;21.20;12.10;;;7.80;99.90;;;;;;5072053;28;20136;-64
2023/04/21 02:58:12;;;;;;;20.70;12.43;;;7.90;99.90;;;;;;5060243;28;20036;-64
2023/04/21 03:00:38;;;;;;;19.30;11.88;;;7.90;99.90;;;;;;5062477;28;20036;-64
2023/04/21 03:03:04;;;;;;;25.63;12.20;;;7.90;99.90;;;;;;5079823;28;20036;-63
2023/04/21 03:05:30;;;;;;;20.52;11.80;;;7.90;99.90;;;;;;5080913;28;20028;-64
2023/04/21 03:07:55;;;;;;;19.55;12.75;;;7.90;99.90;;;;;;5064682;28;20085;-64
2023/04/21 03:10:21;;;;;;;22.17;11.48;;;7.90;99.90;;;;;;5081771;28;20129;-64
2023/04/21 03:12:47;;;;;;;24.23;12.82;;;7.90;99.90;;;;;;5077826;28;20075;-64
2023/04/21 03:15:13;;;;;;;22.05;13.13;;;7.80;99.90;;;;;;5082993;28;20040;-64
2023/04/21 03:17:42;;;;;;;20.30;12.48;;;7.90;99.90;;;;;;5080901;28;20047;-64
2023/04/21 03:20:09;;;;;;;18.45;12.38;;;7.90;99.90;;;;;;5066286;28;20043;-64
2023/04/21 03:22:35;;;;;;;21.42;12.63;;;7.90;99.90;;;;;;5079913;28;21493;-64
2023/04/21 03:25:01;;;;;;;17.45;11.15;;;7.90;99.90;;;;;;5057980;28;20036;-64
2023/04/21 03:27:26;;;;;;;17.38;11.57;;;7.90;99.90;;;;;;5080320;28;20055;-64
2023/04/21 03:29:52;;;;;;;25.25;11.20;;;7.90;99.90;;;;;;5083944;28;20493;-64
2023/04/21 03:32:18;;;;;;;18.70;12.07;;;7.90;99.90;;;;;;5082928;28;20032;-65
2023/04/21 03:34:44;;;;;;;16.23;10.15;;;7.90;99.90;;;;;;5081370;28;20609;-64
2023/04/21 03:37:09;;;;;;;21.42;11.82;;;7.90;99.90;;;;;;5057727;28;20043;-63
2023/04/21 03:39:35;;;;;;;21.52;11.80;;;7.80;99.90;;;;;;5084934;28;20040;-64
2023/04/21 03:42:01;;;;;;;19.58;11.73;;;7.80;99.90;;;;;;5050855;28;20032;-64
2023/04/21 03:44:27;;;;;;;17.23;11.18;;;7.80;99.90;;;;;;5049053;28;20066;-64
2023/04/21 03:46:54;;;;;;;21.77;12.35;;;7.80;99.90;;;;;;5084623;28;20032;-64
2023/04/21 03:49:20;;;;;;;18.90;12.35;;;7.80;99.90;;;;;;5069417;28;20474;-64
2023/04/21 03:51:46;;;;;;;18.67;12.75;;;7.80;99.90;;;;;;5083138;28;20028;-64
2023/04/21 03:54:12;;;;;;;20.65;13.00;;;7.80;99.90;;;;;;5087220;28;20038;-64
2023/04/21 03:56:37;;;;;;;19.73;11.90;;;7.80;99.90;;;;;;5084748;28;20485;-64
2023/04/21 03:59:03;;;;;;;22.70;12.13;;;7.80;99.90;;;;;;5086033;28;20040;-63
2023/04/21 04:01:29;;;;;;;20.90;12.52;;;7.80;99.90;;;;;;5061085;28;20047;-64
2023/04/21 04:03:54;;;;;;;21.13;12.35;;;7.80;99.90;;;;;;5067007;28;20097;-63
2023/04/21 04:06:20;;;;;;;21.05;12.27;;;7.80;99.90;;;;;;5086129;28;20079;-64
2023/04/21 04:08:46;;;;;;;21.83;12.43;;;7.70;99.90;;;;;;5085516;28;20064;-64
2023/04/21 04:11:12;;;;;;;19.33;11.60;;;7.70;99.90;;;;;;5065668;28;20336;-64
2023/04/21 04:13:37;;;;;;;18.30;12.57;;;7.60;99.90;;;;;;5084344;28;20044;-64
2023/04/21 04:16:03;;;;;;;18.25;11.85;;;7.60;99.90;;;;;;5084795;28;20121;-64
2023/04/21 04:18:29;;;;;;;22.73;12.52;;;7.60;99.90;;;;;;5084002;28;20044;-64
2023/04/21 04:20:55;;;;;;;17.20;11.70;;;7.50;99.90;;;;;;5065509;28;20048;-64
2023/04/21 04:23:21;;;;;;;22.95;12.00;;;7.50;99.90;;;;;;5083824;28;20050;-64
2023/04/21 04:25:47;;;;;;;19.80;11.82;;;7.50;99.90;;;;;;5085144;28;20048;-64
2023/04/21 04:28:14;;;;;;;18.50;12.27;;;7.50;99.90;;;;;;5083979;28;20140;-64
2023/04/21 04:30:40;;;;;;;17.98;12.07;;;7.50;99.90;;;;;;5068778;28;20044;-64
2023/04/21 04:33:06;;;;;;;21.10;12.50;;;7.50;99.90;;;;;;5081817;28;20036;-64
2023/04/21 04:35:32;;;;;;;21.63;13.25;;;7.40;99.90;;;;;;5083337;28;20594;-64
2023/04/21 04:37:58;;;;;;;21.48;12.43;;;7.40;99.90;;;;;;5063722;28;20144;-64
2023/04/21 04:40:24;;;;;;;18.98;11.63;;;7.40;99.90;;;;;;5083297;28;20032;-65
2023/04/21 04:42:50;;;;;;;18.25;11.68;;;7.40;99.90;;;;;;5082731;28;20063;-64
2023/04/21 04:45:16;;;;;;;23.23;12.57;;;7.50;99.90;;;;;;5064351;28;20047;-64
2023/04/21 04:47:43;;;;;;;20.45;12.18;;;7.50;99.90;;;;;;5083230;28;20047;-64
2023/04/21 04:50:09;;;;;;;20.63;12.18;;;7.40;99.90;;;;;;5084085;28;20048;-65
2023/04/21 04:52:34;;;;;;;20.02;12.55;;;7.50;99.90;;;;;;5085103;28;20040;-65
2023/04/21 04:55:00;;;;;;;22.40;12.10;;;7.50;99.90;;;;;;5084792;28;20406;-64
2023/04/21 04:57:26;;;;;;;22.17;12.35;;;7.40;99.90;;;;;;5085275;28;20031;-65
2023/04/21 04:59:55;;;;;;;18.90;11.80;;;7.40;99.90;;;;;;5083461;28;20036;-65
2023/04/21 05:02:22;;;;;;;20.17;12.50;;;7.50;99.90;;;;;;5083034;28;20333;-64
2023/04/21 05:04:49;;;;;;;19.40;12.40;;;7.40;99.90;;;;;;5084076;28;20111;-65
2023/04/21 05:07:15;;;;;;;15.63;11.30;;;7.50;99.90;;;;;;5081770;28;20043;-65
2023/04/21 05:09:40;;;;;;;22.33;12.63;;;7.50;99.90;;;;;;5084052;28;20032;-64
2023/04/21 05:12:07;;;;;;;18.13;11.20;;;7.50;99.90;;;;;;5070983;28;20036;-65
2023/04/21 05:14:32;;;;;;;20.75;11.52;;;7.60;99.90;;;;;;5055724;28;20040;-65
2023/04/21 05:16:58;;;;;;;24.80;12.15;;;7.60;99.90;;;;;;5092605;28;20485;-64
2023/04/21 05:19:25;;;;;;;19.70;11.65;;;7.70;99.90;;;;;;5052706;28;20058;-65
2023/04/21 05:21:50;;;;;;;17.20;11.77;;;7.80;99.90;;;;;;5071785;28;20062;-65
2023/04/21 05:24:22;;;;;;;19.73;11.60;;;7.80;99.90;;;;;;5069103;28;20044;-65
2023/04/21 05:26:48;;;;;;;18.88;12.30;;;7.80;99.90;;;;;;5071926;28;20052;-65
2023/04/21 05:29:13;;;;;;;15.18;10.73;;;7.90;99.90;;;;;;5092025;28;20043;-65
2023/04/21 05:31:39;;;;;;;18.42;11.05;;;7.90;99.90;;;;;;5088798;28;20036;-64
2023/04/21 05:34:05;;;;;;;19.77;11.95;;;7.90;99.90;;;;;;5072643;28;20548;-65
2023/04/21 05:36:31;;;;;;;23.83;12.32;;;7.90;99.90;;;;;;5087086;28;20111;-65
2023/04/21 05:38:57;;;;;;;17.60;11.23;;;7.90;99.90;;;;;;5089998;28;20169;-64
2023/04/21 05:41:23;;;;;;;18.48;11.85;;;8.00;99.90;;;;;;5090017;28;20035;-64
2023/04/21 05:43:48;;;;;;;16.45;11.88;;;8.00;99.90;;;;;;5083833;28;20401;-64
2023/04/21 05:46:14;;;;;;;14.68;11.10;;;8.00;99.90;;;;;;5088052;28;20044;-65
2023/04/21 05:48:40;;;;;;;28.15;11.40;;;8.10;99.90;;;;;;5051146;28;20043;-64
2023/04/21 05:51:10;;;;;;;15.32;10.93;;;8.10;99.90;;;;;;5062246;28;20050;-64
2023/04/21 05:53:37;;;;;;;23.38;11.38;;;8.10;99.90;;;;;;5064903;28;20540;-64
2023/04/21 05:56:04;;;;;;;17.58;10.88;;;8.20;99.90;;;;;;5082823;28;20075;-64
2023/04/21 05:58:29;;;;;;;16.35;11.60;;;8.20;99.90;;;;;;5045466;28;20075;-64
2023/04/21 06:00:55;;;;;;;18.35;10.40;;;8.30;99.90;;;;;;5064541;28;20063;-64
2023/04/21 06:03:21;;;;;;;18.55;10.77;;;8.40;99.90;;;;;;5077273;28;20044;-64
2023/04/21 06:05:47;;;;;;;16.45;10.52;;;8.40;99.90;;;;;;5080964;28;20042;-65
2023/04/21 06:08:12;;;;;;;16.92;10.43;;;8.50;99.90;;;;;;5080468;28;20062;-65
2023/04/21 06:10:38;;;;;;;22.98;11.07;;;8.60;99.90;;;;;;5078592;28;20063;-65
2023/04/21 06:13:04;;;;;;;17.77;10.93;;;9.00;99.90;;;;;;5046991;28;20113;-65
2023/04/21 06:15:30;;;;;;;16.40;10.38;;;8.70;99.90;;;;;;5080581;28;20478;-64
2023/04/21 06:17:55;;;;;;;16.10;10.65;;;8.80;99.90;;;;;;5082531;28;20485;-65
2023/04/21 06:20:21;;;;;;;21.65;10.48;;;8.90;99.90;;;;;;5080609;28;20042;-65
2023/04/21 06:22:47;;;;;;;17.25;9.48;;;9.00;99.90;;;;;;5082655;28;20455;-65
2023/04/21 06:25:12;;;;;;;17.33;10.48;;;9.10;99.90;;;;;;5080808;28;20079;-65
2023/04/21 06:27:38;;;;;;;18.27;10.80;;;9.10;99.90;;;;;;5055680;28;20052;-65
2023/04/21 06:30:05;;;;;;;19.67;10.50;;;9.10;99.90;;;;;;5065580;28;20037;-65
2023/04/21 06:32:30;;;;;;;16.13;9.52;;;9.20;99.90;;;;;;5061681;28;20563;-65
2023/04/21 06:34:56;;;;;;;15.07;10.35;;;9.20;99.90;;;;;;5062302;28;20067;-65
2023/04/21 06:37:22;;;;;;;14.05;9.18;;;9.30;99.90;;;;;;5062360;28;20044;-65
2023/04/21 06:39:47;;;;;;;17.13;9.85;;;9.50;99.90;;;;;;5068903;28;20028;-65
2023/04/21 06:42:13;;;;;;;15.43;8.55;;;9.60;99.90;;;;;;5063483;28;20036;-65
2023/04/21 06:44:39;;;;;;;12.70;9.02;;;9.80;99.90;;;;;;5064882;28;20094;-65
2023/04/21 06:47:05;;;;;;;15.20;9.27;;;10.00;99.90;;;;;;5079438;28;20043;-64
2023/04/21 06:49:32;;;;;;;15.50;8.77;;;10.20;99.90;;;;;;5078769;28;20040;-65
2023/04/21 06:51:58;;;;;;;14.52;10.57;;;10.40;99.90;;;;;;5084657;28;20789;-64
2023/04/21 06:54:24;;;;;;;14.20;9.38;;;10.40;99.90;;;;;;5065408;28;20033;-65
2023/04/21 06:56:50;;;;;;;17.80;9.82;;;10.50;99.90;;;;;;5061684;28;20131;-65
2023/04/21 06:59:16;;;;;;;18.15;9.80;;;10.50;99.90;;;;;;5047876;28;20573;-65
2023/04/21 07:01:41;;;;;;;14.10;9.73;;;10.50;99.90;;;;;;5055302;28;20044;-65
2023/04/21 07:04:07;;;;;;;11.63;9.50;;;10.50;99.90;;;;;;5047348;28;20481;-65
2023/04/21 07:06:33;;;;;;;15.68;9.23;;;10.50;99.90;;;;;;5047400;28;20035;-65
2023/04/21 07:08:58;;;;;;;18.08;10.68;;;10.60;99.90;;;;;;5047165;28;20087;-65
2023/04/21 07:11:24;;;;;;;19.33;10.75;;;10.80;99.90;;;;;;5050830;28;20509;-65
2023/04/21 07:13:50;;;;;;;15.30;9.90;;;10.90;99.90;;;;;;5050715;28;20486;-65
2023/04/21 07:16:16;;;;;;;16.88;9.43;;;11.00;99.90;;;;;;5051360;28;21549;-65
2023/04/21 07:18:42;;;;;;;18.10;9.93;;;11.10;99.90;;;;;;5054649;28;20040;-65
2023/04/21 07:21:07;;;;;;;15.82;9.60;;;11.20;99.90;;;;;;5049318;28;20233;-65
2023/04/21 07:23:33;;;;;;;14.38;9.43;;;11.30;99.90;;;;;;5048642;28;20044;-65
2023/04/21 07:25:59;;;;;;;16.35;9.88;;;11.30;99.90;;;;;;5053918;28;20044;-65
2023/04/21 07:28:25;;;;;;;14.20;9.48;;;11.40;99.90;;;;;;5035972;28;20060;-65
2023/04/21 07:30:51;;;;;;;16.25;8.52;;;11.50;99.90;;;;;;5032189;28;20091;-65
2023/04/21 07:33:17;;;;;;;16.33;11.07;;;11.40;99.90;;;;;;5032734;28;20037;-65
2023/04/21 07:35:42;;;;;;;22.27;12.13;;;11.60;99.90;;;;;;5034729;28;20115;-65
2023/04/21 07:38:08;;;;;;;18.83;9.63;;;11.70;99.90;;;;;;5014926;28;20071;-65
2023/04/21 07:40:34;;;;;;;17.98;9.43;;;11.70;99.90;;;;;;5029849;28;20050;-65
2023/04/21 07:43:00;;;;;;;14.98;10.30;;;11.80;99.90;;;;;;5034240;28;20051;-64
2023/04/21 07:45:25;;;;;;;13.68;10.00;;;11.80;99.90;;;;;;5033507;28;20125;-65
2023/04/21 07:47:51;;;;;;;14.93;9.65;;;11.90;99.90;;;;;;5015500;28;20098;-64
2023/04/21 07:50:17;;;;;;;17.17;9.32;;;12.00;99.90;;;;;;5016071;28;20037;-64
2023/04/21 07:52:42;;;;;;;19.92;8.85;;;12.10;99.90;;;;;;5032182;28;20360;-65
2023/04/21 07:55:08;;;;;;;16.92;8.98;;;12.30;99.90;;;;;;5012436;28;20052;-64
2023/04/21 07:57:38;;;;;;;24.83;15.30;;;12.60;99.90;;;;;;5031302;28;20569;-65
2023/04/21 08:00:05;;;;;;;18.75;10.57;;;13.00;99.90;;;;;;5032543;28;20156;-65
2023/04/21 08:02:31;;;;;;;17.67;8.88;;;13.10;99.90;;;;;;5014133;28;20049;-65
2023/04/21 08:04:57;;;;;;;20.25;9.90;;;13.20;99.90;;;;;;5033296;28;20205;-65
2023/04/21 08:07:22;;;;;;;16.15;8.88;;;13.30;99.90;;;;;;5031488;28;20087;-64
2023/04/21 08:09:48;;;;;;;13.75;8.60;;;13.20;99.90;;;;;;5031460;28;20072;-64
2023/04/21 08:12:14;;;;;;;14.30;8.32;;;13.20;99.90;;;;;;5030410;28;20040;-64
2023/04/21 08:14:40;;;;;;;13.65;8.45;;;13.20;99.90;;;;;;5030485;28;20059;-65
2023/04/21 08:17:05;;;;;;;14.82;9.80;;;13.30;99.90;;;;;;4997275;28;21052;-65
2023/04/21 08:19:31;;;;;;;16.88;9.35;;;13.40;99.90;;;;;;5031419;28;20048;-65
2023/04/21 08:21:57;;;;;;;19.00;8.55;;;13.50;99.90;;;;;;5013891;28;20049;-64
2023/04/21 08:24:23;;;;;;;18.08;8.98;;;13.60;99.90;;;;;;5032596;28;20033;-64
2023/04/21 08:26:49;;;;;;;18.60;8.85;;;13.70;99.90;;;;;;5037691;28;20189;-64
2023/04/21 08:29:15;;;;;;;14.63;8.88;;;13.70;99.90;;;;;;5072380;28;20049;-64
2023/04/21 08:31:41;;;;;;;19.63;9.57;;;13.80;99.90;;;;;;5053233;28;20584;-64
2023/04/21 08:34:06;;;;;;;14.48;8.93;;;13.90;99.90;;;;;;5073704;28;20398;-64
2023/04/21 08:36:32;;;;;;;13.52;8.93;;;14.10;99.90;;;;;;5054354;28;20559;-65
2023/04/21 08:38:58;;;;;;;22.40;8.82;;;14.20;99.90;;;;;;5038532;28;20055;-64
2023/04/21 08:41:25;;;;;;;13.35;9.20;;;14.40;99.90;;;;;;5053375;28;20051;-62
2023/04/21 08:43:51;;;;;;;17.70;8.52;;;14.50;99.90;;;;;;5072934;28;20511;-64
2023/04/21 08:46:18;;;;;;;14.55;8.20;;;14.60;99.90;;;;;;5036129;28;20522;-64
2023/04/21 08:48:45;;;;;;;20.38;8.90;;;14.50;99.90;;;;;;5071413;28;20508;-63
2023/04/21 08:51:22;;;;;;;14.88;9.13;;;14.50;99.90;;;;;;5052608;28;20879;-64
2023/04/21 08:53:48;;;;;;;17.38;9.00;;;14.60;99.90;;;;;;5051834;28;20079;-64
2023/04/21 08:56:14;;;;;;;13.02;8.63;;;14.70;99.90;;;;;;5065028;28;20466;-64
2023/04/21 08:58:40;;;;;;;11.98;9.20;;;14.90;99.90;;;;;;5077499;28;20949;-64
2023/04/21 09:01:06;;;;;;;14.48;9.15;;;15.00;99.90;;;;;;5076091;28;20029;-64
2023/04/21 09:03:32;;;;;;;13.68;9.23;;;15.30;99.90;;;;;;5077106;28;20036;-64
2023/04/21 09:05:59;;;;;;;13.77;9.50;;;15.90;99.90;;;;;;5076083;28;20047;-64
2023/04/21 09:08:26;;;;;;;14.32;8.93;;;16.70;99.90;;;;;;5057066;28;20457;-64
2023/04/21 09:10:53;;;;;;;17.15;9.30;;;17.40;99.90;;;;;;5057287;28;20049;-64
2023/04/21 09:13:19;;;;;;;17.83;9.30;;;18.10;99.90;;;;;;5055955;28;20040;-64
2023/04/21 09:15:48;;;;;;;21.65;9.38;;;18.30;99.90;;;;;;5076523;28;20069;-64
2023/04/21 09:18:25;;;;;;;12.40;8.50;;;17.90;99.90;;;;;;5076920;28;20448;-64
2023/04/21 09:21:04;;;;;;;17.25;9.27;;;17.40;99.90;;;;;;5074705;28;20504;-64
2023/04/21 09:23:30;;;;;;;13.55;9.20;;;17.10;99.90;;;;;;5076541;28;20052;-64
2023/04/21 09:25:55;;;;;;;19.75;9.25;;;16.90;99.90;;;;;;5059289;28;20040;-64
2023/04/21 09:28:21;;;;;;;17.55;9.45;;;17.00;99.90;;;;;;5054856;28;20064;-64
2023/04/21 09:30:55;;;;;;;17.95;8.95;;;17.40;99.90;;;;;;5054388;28;20036;-64
2023/04/21 09:33:21;;;;;;;14.85;8.85;;;18.10;99.90;;;;;;5058398;28;20052;-64
2023/04/21 09:35:47;;;;;;;14.68;8.90;;;18.60;99.90;;;;;;5054807;28;20513;-64
2023/04/21 09:38:13;;;;;;;17.52;8.73;;;19.00;99.30;;;;;;5055426;28;20045;-64
2023/04/21 09:40:39;;;;;;;13.75;8.45;;;19.00;99.80;;;;;;5057264;28;20033;-64
2023/04/21 09:43:05;;;;;;;15.02;8.55;;;18.90;99.20;;;;;;5038859;28;20088;-64
2023/04/21 09:45:32;;;;;;;20.10;9.10;;;18.60;98.50;;;;;;5054566;28;20044;-64
2023/04/21 09:48:00;;;;;;;15.80;8.60;;;18.20;99.60;;;;;;5056382;28;20040;-64
2023/04/21 09:50:27;;;;;;;17.33;9.60;;;17.80;99.10;;;;;;5056935;28;20032;-64
2023/04/21 09:52:55;;;;;;;13.27;8.25;;;17.60;99.00;;;;;;5056336;28;20071;-64
2023/04/21 09:55:27;;;;;;;14.30;8.68;;;17.50;99.90;;;;;;5056612;28;20050;-64
2023/04/21 09:57:58;;;;;;;14.45;8.18;;;17.70;99.90;;;;;;5054994;28;20051;-64
2023/04/21 10:00:28;;;;;;;17.15;8.85;;;18.30;99.90;;;;;;5054744;28;21922;-65
2023/04/21 10:02:57;;;;;;;14.30;9.80;;;18.30;99.80;;;;;;5055481;28;20477;-64
2023/04/21 10:05:23;;;;;;;16.90;9.52;;;18.00;99.70;;;;;;5059682;28;20108;-65
2023/04/21 10:07:49;;;;;;;20.92;9.77;;;18.00;99.40;;;;;;5063262;28;20687;-64
2023/04/21 10:10:27;;;;;;;12.52;9.10;;;18.10;99.50;;;;;;5070426;28;20067;-64
2023/04/21 10:12:54;;;;;;;12.80;8.10;;;18.60;98.90;;;;;;5069535;28;20509;-65
2023/04/21 10:15:34;;;;;;;15.35;9.35;;;19.20;98.50;;;;;;5070565;28;20378;-64
2023/04/21 10:18:15;;;;;;;15.73;9.45;;;19.90;98.20;;;;;;5052065;28;20054;-65
2023/04/21 10:21:07;;;;;;;16.45;9.00;;;20.40;97.80;;;;;;5066445;28;20037;-65
2023/04/21 10:23:42;;;;;;;15.98;9.35;;;20.50;97.10;;;;;;5069812;28;20051;-65
2023/04/21 10:26:14;;;;;;;14.68;9.20;;;20.50;96.20;;;;;;5068047;28;20102;-65
2023/04/21 10:28:43;;;;;;;15.07;8.68;;;20.70;97.20;;;;;;5059889;28;20529;-64
2023/04/21 10:31:15;;;;;;;14.40;8.70;;;20.60;96.70;;;;;;5065823;28;20033;-64
2023/04/21 10:33:41;;;;;;;16.58;9.25;;;20.60;96.20;;;;;;5050033;28;20038;-65
2023/04/21 10:36:11;;;;;;;18.35;9.50;;;20.60;96.40;;;;;;5048427;28;20111;-65
2023/04/21 10:38:41;;;;;;;10.77;8.05;;;20.70;96.30;;;;;;5040407;28;20398;-64
2023/04/21 10:41:37;;;;;;;14.75;8.73;;;20.60;95.40;;;;;;5046169;28;20037;-64
2023/04/21 10:44:10;;;;;;;12.15;8.32;;;19.90;95.10;;;;;;5048664;28;20167;-64
2023/04/21 10:46:39;;;;;;;39.30;22.02;;;20.00;95.90;;;;;;5058599;28;20044;-65
2023/04/21 10:49:10;;;;;;;13.55;9.23;;;20.40;95.90;;;;;;5066688;28;20036;-65
2023/04/21 10:51:58;;;;;;;12.70;7.55;;;20.60;95.20;;;;;;5068572;28;20041;-64
2023/04/21 10:54:25;;;;;;;14.25;7.82;;;20.90;94.90;;;;;;5059097;28;20199;-65
2023/04/21 10:56:52;;;;;;;12.15;7.60;;;21.30;94.60;;;;;;5038393;28;20414;-65
2023/04/21 10:59:18;;;;;;;20.23;12.35;;;20.90;94.00;;;;;;5042849;28;20053;-65
2023/04/21 11:01:44;;;;;;;15.35;9.13;;;21.20;94.40;;;;;;5051933;28;20511;-64
2023/04/21 11:04:20;;;;;;;14.95;9.18;;;21.80;94.20;;;;;;5055881;28;20039;-65
2023/04/21 11:07:06;;;;;;;14.23;9.35;;;22.20;94.00;;;;;;5039950;28;20099;-65
2023/04/21 11:09:33;;;;;;;14.07;6.88;;;22.90;93.20;;;;;;5064068;28;20045;-65
2023/04/21 11:12:01;;;;;;;15.05;7.13;;;22.40;92.30;;;;;;5064379;28;20085;-65
2023/04/21 11:14:27;;;;;;;11.18;6.32;;;22.20;91.20;;;;;;5058601;28;20442;-64
2023/04/21 11:16:53;;;;;;;9.95;6.40;;;21.80;90.70;;;;;;5067239;28;20089;-65
2023/04/21 11:19:23;;;;;;;10.70;6.57;;;21.70;91.20;;;;;;5066690;28;20474;-65
2023/04/21 11:21:49;;;;;;;14.30;6.95;;;21.40;91.70;;;;;;5049788;28;20065;-65
2023/04/21 11:24:15;;;;;;;12.90;6.60;;;21.10;90.90;;;;;;5064725;28;20051;-65
2023/04/21 11:26:43;;;;;;;10.35;6.53;;;20.90;91.40;;;;;;5060338;28;20033;-65
2023/04/21 11:29:10;;;;;;;14.07;6.15;;;21.10;89.80;;;;;;5046938;28;20044;-64
2023/04/21 11:31:39;;;;;;;14.75;6.88;;;21.00;90.90;;;;;;5066015;28;20033;-64
2023/04/21 11:34:06;;;;;;;9.82;5.97;;;21.00;91.30;;;;;;5067635;28;20047;-64
2023/04/21 11:36:33;;;;;;;8.65;5.65;;;20.60;90.40;;;;;;5061733;28;20036;-65
2023/04/21 11:39:06;;;;;;;8.73;5.00;;;20.50;90.20;;;;;;5057545;28;20078;-64
2023/04/21 11:41:32;;;;;;;14.40;5.68;;;20.20;90.70;;;;;;5043230;28;20086;-64
2023/04/21 11:43:58;;;;;;;8.50;4.90;;;20.10;90.10;;;;;;5043622;28;20049;-64
2023/04/21 11:46:25;;;;;;;10.02;5.35;;;20.40;91.10;;;;;;5043311;28;20688;-64
2023/04/21 11:49:01;;;;;;;12.63;4.75;;;20.60;87.80;;;;;;5044114;28;20037;-64
2023/04/21 11:51:38;;;;;;;12.65;5.40;;;20.80;88.90;;;;;;5042197;28;20075;-64
2023/04/21 11:54:06;;;;;;;11.70;4.88;;;20.70;87.30;;;;;;5046961;28;20048;-64
2023/04/21 11:56:36;;;;;;;15.95;5.10;;;20.70;87.40;;;;;;5039803;28;20151;-64
2023/04/21 11:59:13;;;;;;;874.38;149.85;;;20.90;87.60;;;;;;5042896;28;20521;-64
2023/04/21 12:01:50;;;;;;;50.40;9.45;;;21.20;87.10;;;;;;5044827;28;20057;-64
2023/04/21 12:04:18;;;;;;;21.90;6.30;;;21.20;85.30;;;;;;5050057;28;20045;-64
2023/04/21 12:06:58;;;;;;;166.75;22.85;;;21.00;87.10;;;;;;5048461;28;20090;-65
2023/04/21 12:09:24;;;;;;;14.32;5.82;;;20.90;85.50;;;;;;5045165;28;20448;-64
2023/04/21 12:11:52;;;;;;;7.18;4.55;;;20.70;86.20;;;;;;5050595;28;20072;-64
2023/04/21 12:14:21;;;;;;;552.53;81.30;;;20.60;87.10;;;;;;5047322;28;20499;-65
2023/04/21 12:16:55;;;;;;;38.40;7.55;;;20.60;86.70;;;;;;5044408;28;20041;-65
2023/04/21 12:19:38;;;;;;;13.63;5.53;;;20.50;85.30;;;;;;5045580;28;20057;-65
2023/04/21 12:22:08;;;;;;;12.00;4.75;;;20.30;86.80;;;;;;5050565;28;20503;-65
2023/04/21 12:24:35;;;;;;;558.85;81.25;;;20.30;88.40;;;;;;5050347;28;20692;-64
2023/04/21 12:27:01;;;;;;;8.90;4.70;;;20.30;87.30;;;;;;5053450;28;20036;-65
2023/04/21 12:29:27;;;;;;;134.93;19.40;;;20.30;86.00;;;;;;5082374;28;20040;-65
2023/04/21 12:31:53;;;;;;;1251.13;172.27;;;19.90;84.50;;;;;;5079434;28;20119;-65
2023/04/21 12:34:19;;;;;;;14.32;4.68;;;19.80;86.40;;;;;;5084592;28;20098;-65
2023/04/21 12:36:45;;;;;;;14.80;4.90;;;19.60;85.30;;;;;;5083863;28;20044;-65